sensor_id;sensor_type;location;lat;lon;timestamp;P1;durP1;ratioP1;P2;durP2;ratioP2
18973;SDS011;9621;48.690;9.466;2022-10-18T00:01:14;11.13;;;4.20;;
18973;SDS011;9621;48.690;9.466;2022-10-18T00:03:41;11.53;;;3.57;;
18973;SDS011;9621;48.690;9.466;2022-10-18T00:06:07;10.77;;;4.18;;
18973;SDS011;9621;48.690;9.466;2022-10-18T00:08:40;11.10;;;3.83;;
18973;SDS011;9621;48.690;9.466;2022-10-18T00:11:07;9.35;;;4.07;;
18973;SDS011;9621;48.690;9.466;2022-10-18T00:13:34;11.57;;;4.60;;
18973;SDS011;9621;48.690;9.466;2022-10-18T00:16:02;8.40;;;4.57;;
18973;SDS011;9621;48.690;9.466;2022-10-18T00:18:30;12.43;;;3.97;;
18973;SDS011;9621;48.690;9.466;2022-10-18T00:20:58;10.95;;;4.00;;
18973;SDS011;9621;48.690;9.466;2022-10-18T00:23:26;11.90;;;4.20;;
18973;SDS011;9621;48.690;9.466;2022-10-18T00:25:59;6.00;;;4.10;;
18973;SDS011;9621;48.690;9.466;2022-10-18T00:28:28;17.33;;;4.73;;
18973;SDS011;9621;48.690;9.466;2022-10-18T00:30:55;27.33;;;5.70;;
18973;SDS011;9621;48.690;9.466;2022-10-18T00:33:22;36.40;;;5.30;;
18973;SDS011;9621;48.690;9.466;2022-10-18T00:35:49;16.05;;;5.68;;
18973;SDS011;9621;48.690;9.466;2022-10-18T00:38:16;25.73;;;5.57;;
18973;SDS011;9621;48.690;9.466;2022-10-18T00:40:42;11.48;;;5.25;;
18973;SDS011;9621;48.690;9.466;2022-10-18T00:43:12;10.93;;;4.93;;
18973;SDS011;9621;48.690;9.466;2022-10-18T00:45:41;11.88;;;4.53;;
18973;SDS011;9621;48.690;9.466;2022-10-18T00:48:08;6.87;;;4.07;;
18973;SDS011;9621;48.690;9.466;2022-10-18T00:50:36;6.87;;;4.10;;
18973;SDS011;9621;48.690;9.466;2022-10-18T00:53:06;5.77;;;4.00;;
18973;SDS011;9621;48.690;9.466;2022-10-18T00:55:36;6.20;;;3.67;;
18973;SDS011;9621;48.690;9.466;2022-10-18T00:58:04;7.85;;;3.92;;
18973;SDS011;9621;48.690;9.466;2022-10-18T01:00:32;6.17;;;3.63;;
18973;SDS011;9621;48.690;9.466;2022-10-18T01:03:03;8.80;;;3.40;;
18973;SDS011;9621;48.690;9.466;2022-10-18T01:05:31;9.23;;;3.90;;
18973;SDS011;9621;48.690;9.466;2022-10-18T01:08:16;8.87;;;4.00;;
18973;SDS011;9621;48.690;9.466;2022-10-18T01:10:54;14.60;;;4.40;;
18973;SDS011;9621;48.690;9.466;2022-10-18T01:13:32;6.05;;;3.88;;
18973;SDS011;9621;48.690;9.466;2022-10-18T01:16:12;8.67;;;4.30;;
18973;SDS011;9621;48.690;9.466;2022-10-18T01:18:46;7.67;;;3.87;;
18973;SDS011;9621;48.690;9.466;2022-10-18T01:21:28;8.67;;;3.67;;
18973;SDS011;9621;48.690;9.466;2022-10-18T01:24:17;12.10;;;3.67;;
18973;SDS011;9621;48.690;9.466;2022-10-18T01:33:02;5.60;;;3.90;;
18973;SDS011;9621;48.690;9.466;2022-10-18T01:35:44;4.50;;;3.20;;
18973;SDS011;9621;48.690;9.466;2022-10-18T01:38:15;6.10;;;3.57;;
18973;SDS011;9621;48.690;9.466;2022-10-18T01:40:45;7.83;;;3.23;;
18973;SDS011;9621;48.690;9.466;2022-10-18T01:43:14;9.77;;;3.73;;
18973;SDS011;9621;48.690;9.466;2022-10-18T01:45:44;7.20;;;3.42;;
18973;SDS011;9621;48.690;9.466;2022-10-18T01:48:12;9.13;;;3.60;;
18973;SDS011;9621;48.690;9.466;2022-10-18T01:50:40;8.20;;;3.50;;
18973;SDS011;9621;48.690;9.466;2022-10-18T01:53:19;5.97;;;3.05;;
18973;SDS011;9621;48.690;9.466;2022-10-18T01:55:51;7.38;;;3.47;;
18973;SDS011;9621;48.690;9.466;2022-10-18T01:58:43;9.93;;;3.30;;
18973;SDS011;9621;48.690;9.466;2022-10-18T02:01:22;5.70;;;3.45;;
18973;SDS011;9621;48.690;9.466;2022-10-18T02:03:57;7.13;;;3.67;;
18973;SDS011;9621;48.690;9.466;2022-10-18T02:06:33;5.45;;;3.17;;
18973;SDS011;9621;48.690;9.466;2022-10-18T02:09:05;4.43;;;3.40;;
18973;SDS011;9621;48.690;9.466;2022-10-18T02:11:37;10.65;;;3.90;;
18973;SDS011;9621;48.690;9.466;2022-10-18T02:14:07;10.10;;;3.70;;
18973;SDS011;9621;48.690;9.466;2022-10-18T02:16:38;11.63;;;3.80;;
18973;SDS011;9621;48.690;9.466;2022-10-18T02:19:08;8.60;;;3.78;;
18973;SDS011;9621;48.690;9.466;2022-10-18T02:21:39;6.57;;;3.65;;
18973;SDS011;9621;48.690;9.466;2022-10-18T02:24:08;7.07;;;3.70;;
18973;SDS011;9621;48.690;9.466;2022-10-18T02:26:36;5.18;;;3.22;;
18973;SDS011;9621;48.690;9.466;2022-10-18T02:29:03;9.02;;;4.03;;
18973;SDS011;9621;48.690;9.466;2022-10-18T02:31:30;13.10;;;3.70;;
18973;SDS011;9621;48.690;9.466;2022-10-18T02:34:03;7.72;;;3.42;;
18973;SDS011;9621;48.690;9.466;2022-10-18T02:36:35;10.77;;;3.88;;
18973;SDS011;9621;48.690;9.466;2022-10-18T02:39:06;10.65;;;4.35;;
18973;SDS011;9621;48.690;9.466;2022-10-18T02:41:39;8.95;;;4.20;;
18973;SDS011;9621;48.690;9.466;2022-10-18T02:44:06;8.33;;;4.33;;
18973;SDS011;9621;48.690;9.466;2022-10-18T02:46:33;12.80;;;3.83;;
18973;SDS011;9621;48.690;9.466;2022-10-18T02:49:02;10.98;;;4.32;;
18973;SDS011;9621;48.690;9.466;2022-10-18T02:51:29;4.57;;;3.70;;
18973;SDS011;9621;48.690;9.466;2022-10-18T02:53:56;6.25;;;3.60;;
18973;SDS011;9621;48.690;9.466;2022-10-18T02:56:23;8.70;;;3.80;;
18973;SDS011;9621;48.690;9.466;2022-10-18T02:58:50;6.03;;;3.67;;
18973;SDS011;9621;48.690;9.466;2022-10-18T03:01:17;7.63;;;3.53;;
18973;SDS011;9621;48.690;9.466;2022-10-18T03:03:44;7.40;;;3.90;;
18973;SDS011;9621;48.690;9.466;2022-10-18T03:06:12;11.18;;;3.80;;
18973;SDS011;9621;48.690;9.466;2022-10-18T03:08:39;8.90;;;3.78;;
18973;SDS011;9621;48.690;9.466;2022-10-18T03:11:06;10.13;;;3.83;;
18973;SDS011;9621;48.690;9.466;2022-10-18T03:13:33;10.35;;;3.60;;
18973;SDS011;9621;48.690;9.466;2022-10-18T03:16:00;8.63;;;3.38;;
18973;SDS011;9621;48.690;9.466;2022-10-18T03:18:26;8.07;;;3.83;;
18973;SDS011;9621;48.690;9.466;2022-10-18T03:20:53;11.65;;;4.00;;
18973;SDS011;9621;48.690;9.466;2022-10-18T03:23:21;10.80;;;4.32;;
18973;SDS011;9621;48.690;9.466;2022-10-18T03:25:48;9.00;;;4.50;;
18973;SDS011;9621;48.690;9.466;2022-10-18T03:28:15;10.75;;;3.90;;
18973;SDS011;9621;48.690;9.466;2022-10-18T03:30:42;6.55;;;3.45;;
18973;SDS011;9621;48.690;9.466;2022-10-18T03:33:09;15.00;;;4.13;;
18973;SDS011;9621;48.690;9.466;2022-10-18T03:35:36;10.30;;;3.50;;
18973;SDS011;9621;48.690;9.466;2022-10-18T03:38:03;6.97;;;3.90;;
18973;SDS011;9621;48.690;9.466;2022-10-18T03:40:32;8.07;;;3.85;;
18973;SDS011;9621;48.690;9.466;2022-10-18T03:42:58;4.88;;;3.60;;
18973;SDS011;9621;48.690;9.466;2022-10-18T03:45:25;11.13;;;3.88;;
18973;SDS011;9621;48.690;9.466;2022-10-18T03:47:52;7.30;;;4.07;;
18973;SDS011;9621;48.690;9.466;2022-10-18T03:50:19;7.05;;;3.15;;
18973;SDS011;9621;48.690;9.466;2022-10-18T03:52:46;9.25;;;4.55;;
18973;SDS011;9621;48.690;9.466;2022-10-18T03:55:13;7.22;;;4.50;;
18973;SDS011;9621;48.690;9.466;2022-10-18T03:57:41;8.55;;;3.92;;
18973;SDS011;9621;48.690;9.466;2022-10-18T04:00:11;9.65;;;3.60;;
18973;SDS011;9621;48.690;9.466;2022-10-18T04:02:39;8.85;;;3.78;;
18973;SDS011;9621;48.690;9.466;2022-10-18T04:05:06;6.93;;;4.20;;
18973;SDS011;9621;48.690;9.466;2022-10-18T04:07:34;13.73;;;4.22;;
18973;SDS011;9621;48.690;9.466;2022-10-18T04:10:01;11.10;;;3.45;;
18973;SDS011;9621;48.690;9.466;2022-10-18T04:12:28;8.93;;;3.88;;
18973;SDS011;9621;48.690;9.466;2022-10-18T04:14:56;13.27;;;4.25;;
18973;SDS011;9621;48.690;9.466;2022-10-18T04:17:24;5.43;;;3.70;;
18973;SDS011;9621;48.690;9.466;2022-10-18T04:19:50;8.85;;;4.07;;
18973;SDS011;9621;48.690;9.466;2022-10-18T04:22:17;8.68;;;3.97;;
18973;SDS011;9621;48.690;9.466;2022-10-18T04:24:44;13.18;;;3.75;;
18973;SDS011;9621;48.690;9.466;2022-10-18T04:27:11;7.47;;;3.72;;
18973;SDS011;9621;48.690;9.466;2022-10-18T04:29:38;11.68;;;3.95;;
18973;SDS011;9621;48.690;9.466;2022-10-18T04:32:06;8.50;;;3.75;;
18973;SDS011;9621;48.690;9.466;2022-10-18T04:34:33;11.13;;;3.92;;
18973;SDS011;9621;48.690;9.466;2022-10-18T04:37:00;11.90;;;3.72;;
18973;SDS011;9621;48.690;9.466;2022-10-18T04:39:27;8.07;;;3.70;;
18973;SDS011;9621;48.690;9.466;2022-10-18T04:41:54;7.68;;;3.58;;
18973;SDS011;9621;48.690;9.466;2022-10-18T04:44:21;8.63;;;3.70;;
18973;SDS011;9621;48.690;9.466;2022-10-18T04:46:47;9.27;;;4.20;;
18973;SDS011;9621;48.690;9.466;2022-10-18T04:49:16;13.63;;;4.60;;
18973;SDS011;9621;48.690;9.466;2022-10-18T04:51:43;14.27;;;3.97;;
18973;SDS011;9621;48.690;9.466;2022-10-18T04:54:10;6.20;;;3.67;;
18973;SDS011;9621;48.690;9.466;2022-10-18T04:56:37;14.98;;;4.57;;
18973;SDS011;9621;48.690;9.466;2022-10-18T04:59:04;8.30;;;4.78;;
18973;SDS011;9621;48.690;9.466;2022-10-18T05:01:31;10.13;;;4.28;;
18973;SDS011;9621;48.690;9.466;2022-10-18T05:03:58;4.85;;;3.55;;
18973;SDS011;9621;48.690;9.466;2022-10-18T05:06:26;10.52;;;4.38;;
18973;SDS011;9621;48.690;9.466;2022-10-18T05:08:53;5.95;;;4.00;;
18973;SDS011;9621;48.690;9.466;2022-10-18T05:11:19;8.13;;;4.80;;
18973;SDS011;9621;48.690;9.466;2022-10-18T05:13:47;6.93;;;4.07;;
18973;SDS011;9621;48.690;9.466;2022-10-18T05:16:13;7.50;;;4.20;;
18973;SDS011;9621;48.690;9.466;2022-10-18T05:18:41;10.20;;;4.47;;
18973;SDS011;9621;48.690;9.466;2022-10-18T05:21:08;10.23;;;3.80;;
18973;SDS011;9621;48.690;9.466;2022-10-18T05:23:37;10.32;;;4.70;;
18973;SDS011;9621;48.690;9.466;2022-10-18T05:26:05;9.25;;;4.70;;
18973;SDS011;9621;48.690;9.466;2022-10-18T05:28:33;9.75;;;4.57;;
18973;SDS011;9621;48.690;9.466;2022-10-18T05:31:01;8.68;;;4.13;;
18973;SDS011;9621;48.690;9.466;2022-10-18T05:33:29;7.13;;;5.03;;
18973;SDS011;9621;48.690;9.466;2022-10-18T05:35:56;6.30;;;4.63;;
18973;SDS011;9621;48.690;9.466;2022-10-18T05:38:23;12.90;;;4.47;;
18973;SDS011;9621;48.690;9.466;2022-10-18T05:40:52;11.30;;;3.92;;
18973;SDS011;9621;48.690;9.466;2022-10-18T05:43:18;9.07;;;3.80;;
18973;SDS011;9621;48.690;9.466;2022-10-18T05:45:46;7.72;;;3.90;;
18973;SDS011;9621;48.690;9.466;2022-10-18T05:48:13;10.68;;;4.38;;
18973;SDS011;9621;48.690;9.466;2022-10-18T05:50:41;9.50;;;4.70;;
18973;SDS011;9621;48.690;9.466;2022-10-18T05:53:08;11.55;;;4.10;;
18973;SDS011;9621;48.690;9.466;2022-10-18T05:55:35;13.75;;;4.72;;
18973;SDS011;9621;48.690;9.466;2022-10-18T05:58:03;13.23;;;4.57;;
18973;SDS011;9621;48.690;9.466;2022-10-18T06:00:30;9.70;;;4.05;;
18973;SDS011;9621;48.690;9.466;2022-10-18T06:02:57;9.43;;;4.78;;
18973;SDS011;9621;48.690;9.466;2022-10-18T06:05:24;12.45;;;4.53;;
18973;SDS011;9621;48.690;9.466;2022-10-18T06:07:51;11.25;;;4.32;;
18973;SDS011;9621;48.690;9.466;2022-10-18T06:10:18;7.50;;;4.35;;
18973;SDS011;9621;48.690;9.466;2022-10-18T06:12:45;18.75;;;5.30;;
18973;SDS011;9621;48.690;9.466;2022-10-18T06:15:14;11.35;;;5.47;;
18973;SDS011;9621;48.690;9.466;2022-10-18T06:17:41;8.02;;;4.60;;
18973;SDS011;9621;48.690;9.466;2022-10-18T06:20:08;9.90;;;4.57;;
18973;SDS011;9621;48.690;9.466;2022-10-18T06:22:35;18.27;;;4.85;;
18973;SDS011;9621;48.690;9.466;2022-10-18T06:25:02;9.02;;;4.93;;
18973;SDS011;9621;48.690;9.466;2022-10-18T06:27:29;9.52;;;4.88;;
18973;SDS011;9621;48.690;9.466;2022-10-18T06:29:58;14.27;;;5.00;;
18973;SDS011;9621;48.690;9.466;2022-10-18T06:32:26;14.98;;;4.63;;
18973;SDS011;9621;48.690;9.466;2022-10-18T06:34:53;12.38;;;4.78;;
18973;SDS011;9621;48.690;9.466;2022-10-18T06:37:20;13.40;;;4.47;;
18973;SDS011;9621;48.690;9.466;2022-10-18T06:39:47;9.77;;;5.07;;
18973;SDS011;9621;48.690;9.466;2022-10-18T06:42:14;17.67;;;5.07;;
18973;SDS011;9621;48.690;9.466;2022-10-18T06:44:40;9.95;;;4.55;;
18973;SDS011;9621;48.690;9.466;2022-10-18T06:47:08;13.50;;;4.50;;
18973;SDS011;9621;48.690;9.466;2022-10-18T06:49:37;14.73;;;4.35;;
18973;SDS011;9621;48.690;9.466;2022-10-18T06:52:03;8.25;;;4.30;;
18973;SDS011;9621;48.690;9.466;2022-10-18T06:54:31;14.35;;;5.10;;
18973;SDS011;9621;48.690;9.466;2022-10-18T06:56:58;11.13;;;4.05;;
18973;SDS011;9621;48.690;9.466;2022-10-18T06:59:26;11.05;;;4.50;;
18973;SDS011;9621;48.690;9.466;2022-10-18T07:01:53;7.38;;;3.97;;
18973;SDS011;9621;48.690;9.466;2022-10-18T07:04:20;8.23;;;3.60;;
18973;SDS011;9621;48.690;9.466;2022-10-18T07:06:49;7.57;;;3.65;;
18973;SDS011;9621;48.690;9.466;2022-10-18T07:09:18;14.10;;;4.15;;
18973;SDS011;9621;48.690;9.466;2022-10-18T07:11:45;14.40;;;5.05;;
18973;SDS011;9621;48.690;9.466;2022-10-18T07:14:12;14.30;;;4.70;;
18973;SDS011;9621;48.690;9.466;2022-10-18T07:16:39;9.27;;;4.57;;
18973;SDS011;9621;48.690;9.466;2022-10-18T07:19:06;12.15;;;4.20;;
18973;SDS011;9621;48.690;9.466;2022-10-18T07:21:33;22.08;;;5.20;;
18973;SDS011;9621;48.690;9.466;2022-10-18T07:24:02;11.02;;;4.55;;
18973;SDS011;9621;48.690;9.466;2022-10-18T07:26:30;12.75;;;5.00;;
18973;SDS011;9621;48.690;9.466;2022-10-18T07:28:59;14.40;;;5.10;;
18973;SDS011;9621;48.690;9.466;2022-10-18T07:31:30;12.25;;;5.32;;
18973;SDS011;9621;48.690;9.466;2022-10-18T07:33:57;8.75;;;4.43;;
18973;SDS011;9621;48.690;9.466;2022-10-18T07:36:24;9.63;;;4.20;;
18973;SDS011;9621;48.690;9.466;2022-10-18T07:38:54;8.98;;;4.80;;
18973;SDS011;9621;48.690;9.466;2022-10-18T07:41:22;12.60;;;4.80;;
18973;SDS011;9621;48.690;9.466;2022-10-18T07:43:50;6.53;;;4.07;;
18973;SDS011;9621;48.690;9.466;2022-10-18T07:46:18;6.07;;;4.43;;
18973;SDS011;9621;48.690;9.466;2022-10-18T07:48:46;7.82;;;4.70;;
18973;SDS011;9621;48.690;9.466;2022-10-18T07:51:13;12.27;;;5.03;;
18973;SDS011;9621;48.690;9.466;2022-10-18T07:53:40;17.35;;;4.70;;
18973;SDS011;9621;48.690;9.466;2022-10-18T07:56:08;7.35;;;4.93;;
18973;SDS011;9621;48.690;9.466;2022-10-18T07:58:41;11.38;;;5.40;;
18973;SDS011;9621;48.690;9.466;2022-10-18T08:01:08;11.65;;;4.50;;
18973;SDS011;9621;48.690;9.466;2022-10-18T08:03:36;11.73;;;5.20;;
18973;SDS011;9621;48.690;9.466;2022-10-18T08:06:03;9.65;;;5.35;;
18973;SDS011;9621;48.690;9.466;2022-10-18T08:08:32;8.30;;;4.53;;
18973;SDS011;9621;48.690;9.466;2022-10-18T08:11:01;9.55;;;4.30;;
18973;SDS011;9621;48.690;9.466;2022-10-18T08:13:30;9.98;;;4.55;;
18973;SDS011;9621;48.690;9.466;2022-10-18T08:16:03;11.60;;;4.60;;
18973;SDS011;9621;48.690;9.466;2022-10-18T08:18:32;7.45;;;4.55;;
18973;SDS011;9621;48.690;9.466;2022-10-18T08:20:59;10.05;;;4.20;;
18973;SDS011;9621;48.690;9.466;2022-10-18T08:23:26;11.55;;;4.47;;
18973;SDS011;9621;48.690;9.466;2022-10-18T08:25:53;5.90;;;3.60;;
18973;SDS011;9621;48.690;9.466;2022-10-18T08:28:20;7.38;;;3.88;;
18973;SDS011;9621;48.690;9.466;2022-10-18T08:30:47;8.27;;;4.05;;
18973;SDS011;9621;48.690;9.466;2022-10-18T08:33:16;9.98;;;4.35;;
18973;SDS011;9621;48.690;9.466;2022-10-18T08:35:52;9.15;;;4.03;;
18973;SDS011;9621;48.690;9.466;2022-10-18T08:38:20;9.95;;;3.83;;
18973;SDS011;9621;48.690;9.466;2022-10-18T08:40:46;10.32;;;4.03;;
18973;SDS011;9621;48.690;9.466;2022-10-18T08:43:15;9.88;;;4.22;;
18973;SDS011;9621;48.690;9.466;2022-10-18T08:45:51;8.88;;;3.88;;
18973;SDS011;9621;48.690;9.466;2022-10-18T08:48:22;7.65;;;3.65;;
18973;SDS011;9621;48.690;9.466;2022-10-18T08:50:55;6.15;;;3.42;;
18973;SDS011;9621;48.690;9.466;2022-10-18T08:53:25;5.65;;;3.80;;
18973;SDS011;9621;48.690;9.466;2022-10-18T08:55:56;9.52;;;3.47;;
18973;SDS011;9621;48.690;9.466;2022-10-18T08:58:30;8.95;;;3.00;;
18973;SDS011;9621;48.690;9.466;2022-10-18T09:01:02;6.68;;;3.35;;
18973;SDS011;9621;48.690;9.466;2022-10-18T09:03:43;7.13;;;3.53;;
18973;SDS011;9621;48.690;9.466;2022-10-18T09:06:21;12.73;;;3.53;;
18973;SDS011;9621;48.690;9.466;2022-10-18T09:09:00;8.32;;;3.33;;
18973;SDS011;9621;48.690;9.466;2022-10-18T09:11:45;6.53;;;3.10;;
18973;SDS011;9621;48.690;9.466;2022-10-18T09:14:21;5.45;;;3.35;;
18973;SDS011;9621;48.690;9.466;2022-10-18T09:17:12;10.45;;;3.13;;
18973;SDS011;9621;48.690;9.466;2022-10-18T09:19:52;8.18;;;3.38;;
18973;SDS011;9621;48.690;9.466;2022-10-18T09:22:40;7.38;;;4.50;;
18973;SDS011;9621;48.690;9.466;2022-10-18T09:25:24;8.20;;;4.50;;
18973;SDS011;9621;48.690;9.466;2022-10-18T09:28:02;4.07;;;2.97;;
18973;SDS011;9621;48.690;9.466;2022-10-18T09:30:42;6.60;;;3.28;;
18973;SDS011;9621;48.690;9.466;2022-10-18T09:33:19;7.65;;;3.40;;
18973;SDS011;9621;48.690;9.466;2022-10-18T09:36:06;7.82;;;3.20;;
18973;SDS011;9621;48.690;9.466;2022-10-18T09:38:39;3.92;;;2.75;;
18973;SDS011;9621;48.690;9.466;2022-10-18T09:41:11;7.22;;;3.10;;
18973;SDS011;9621;48.690;9.466;2022-10-18T09:43:45;7.10;;;2.90;;
18973;SDS011;9621;48.690;9.466;2022-10-18T09:46:17;5.55;;;2.42;;
18973;SDS011;9621;48.690;9.466;2022-10-18T09:48:48;4.80;;;2.78;;
18973;SDS011;9621;48.690;9.466;2022-10-18T09:51:20;6.07;;;2.78;;
18973;SDS011;9621;48.690;9.466;2022-10-18T09:53:55;6.63;;;3.03;;
18973;SDS011;9621;48.690;9.466;2022-10-18T09:56:39;7.90;;;2.63;;
18973;SDS011;9621;48.690;9.466;2022-10-18T09:59:17;4.43;;;2.75;;
18973;SDS011;9621;48.690;9.466;2022-10-18T10:01:55;4.03;;;2.60;;
18973;SDS011;9621;48.690;9.466;2022-10-18T10:04:22;4.57;;;2.90;;
18973;SDS011;9621;48.690;9.466;2022-10-18T10:06:50;7.70;;;3.35;;
18973;SDS011;9621;48.690;9.466;2022-10-18T10:09:21;6.45;;;2.97;;
18973;SDS011;9621;48.690;9.466;2022-10-18T10:11:53;7.57;;;3.05;;
18973;SDS011;9621;48.690;9.466;2022-10-18T10:14:21;9.15;;;3.47;;
18973;SDS011;9621;48.690;9.466;2022-10-18T10:16:51;4.80;;;2.63;;
18973;SDS011;9621;48.690;9.466;2022-10-18T10:19:21;6.28;;;2.60;;
18973;SDS011;9621;48.690;9.466;2022-10-18T10:21:56;5.30;;;2.75;;
18973;SDS011;9621;48.690;9.466;2022-10-18T10:24:33;7.35;;;2.67;;
18973;SDS011;9621;48.690;9.466;2022-10-18T10:27:14;5.47;;;2.35;;
18973;SDS011;9621;48.690;9.466;2022-10-18T10:29:51;11.10;;;2.30;;
18973;SDS011;9621;48.690;9.466;2022-10-18T10:32:22;7.78;;;3.05;;
18973;SDS011;9621;48.690;9.466;2022-10-18T10:34:51;4.20;;;2.85;;
18973;SDS011;9621;48.690;9.466;2022-10-18T10:37:33;5.93;;;2.42;;
18973;SDS011;9621;48.690;9.466;2022-10-18T10:40:11;4.55;;;2.45;;
18973;SDS011;9621;48.690;9.466;2022-10-18T10:42:54;6.18;;;2.45;;
18973;SDS011;9621;48.690;9.466;2022-10-18T10:45:31;4.43;;;2.72;;
18973;SDS011;9621;48.690;9.466;2022-10-18T10:48:12;3.10;;;2.10;;
18973;SDS011;9621;48.690;9.466;2022-10-18T10:50:49;5.93;;;2.25;;
18973;SDS011;9621;48.690;9.466;2022-10-18T10:56:23;5.97;;;2.30;;
18973;SDS011;9621;48.690;9.466;2022-10-18T10:58:52;8.02;;;2.67;;
18973;SDS011;9621;48.690;9.466;2022-10-18T11:06:51;4.53;;;2.50;;
18973;SDS011;9621;48.690;9.466;2022-10-18T11:09:29;3.67;;;1.85;;
18973;SDS011;9621;48.690;9.466;2022-10-18T11:15:00;5.15;;;2.17;;
18973;SDS011;9621;48.690;9.466;2022-10-18T11:17:36;6.30;;;2.10;;
18973;SDS011;9621;48.690;9.466;2022-10-18T11:20:10;4.90;;;1.98;;
18973;SDS011;9621;48.690;9.466;2022-10-18T11:22:49;5.70;;;2.10;;
18973;SDS011;9621;48.690;9.466;2022-10-18T11:25:28;6.10;;;2.10;;
18973;SDS011;9621;48.690;9.466;2022-10-18T11:28:10;5.63;;;2.08;;
18973;SDS011;9621;48.690;9.466;2022-10-18T11:30:49;5.03;;;2.13;;
18973;SDS011;9621;48.690;9.466;2022-10-18T11:33:27;3.83;;;2.10;;
18973;SDS011;9621;48.690;9.466;2022-10-18T11:36:06;7.82;;;2.17;;
18973;SDS011;9621;48.690;9.466;2022-10-18T11:38:40;5.32;;;2.45;;
18973;SDS011;9621;48.690;9.466;2022-10-18T11:44:01;4.82;;;2.33;;
18973;SDS011;9621;48.690;9.466;2022-10-18T11:46:36;4.60;;;2.13;;
18973;SDS011;9621;48.690;9.466;2022-10-18T11:49:17;6.95;;;2.60;;
18973;SDS011;9621;48.690;9.466;2022-10-18T11:51:58;4.65;;;2.45;;
18973;SDS011;9621;48.690;9.466;2022-10-18T11:54:36;8.25;;;2.30;;
18973;SDS011;9621;48.690;9.466;2022-10-18T11:57:15;6.68;;;2.78;;
18973;SDS011;9621;48.690;9.466;2022-10-18T11:59:58;7.18;;;2.95;;
18973;SDS011;9621;48.690;9.466;2022-10-18T12:02:39;4.63;;;2.85;;
18973;SDS011;9621;48.690;9.466;2022-10-18T12:05:24;8.23;;;3.38;;
18973;SDS011;9621;48.690;9.466;2022-10-18T12:07:53;5.93;;;3.33;;
18973;SDS011;9621;48.690;9.466;2022-10-18T12:10:24;3.42;;;2.80;;
18973;SDS011;9621;48.690;9.466;2022-10-18T12:12:56;10.80;;;3.10;;
18973;SDS011;9621;48.690;9.466;2022-10-18T12:15:26;8.50;;;3.10;;
18973;SDS011;9621;48.690;9.466;2022-10-18T12:17:57;4.40;;;2.95;;
18973;SDS011;9621;48.690;9.466;2022-10-18T12:20:30;8.32;;;3.30;;
18973;SDS011;9621;48.690;9.466;2022-10-18T12:23:00;3.97;;;3.00;;
18973;SDS011;9621;48.690;9.466;2022-10-18T12:25:31;8.88;;;2.80;;
18973;SDS011;9621;48.690;9.466;2022-10-18T12:28:05;7.05;;;3.45;;
18973;SDS011;9621;48.690;9.466;2022-10-18T12:30:36;6.63;;;3.08;;
18973;SDS011;9621;48.690;9.466;2022-10-18T12:33:09;10.43;;;3.58;;
18973;SDS011;9621;48.690;9.466;2022-10-18T12:35:44;5.18;;;2.70;;
18973;SDS011;9621;48.690;9.466;2022-10-18T12:38:22;5.90;;;3.10;;
18973;SDS011;9621;48.690;9.466;2022-10-18T12:40:55;7.70;;;2.90;;
18973;SDS011;9621;48.690;9.466;2022-10-18T12:43:24;11.43;;;3.28;;
18973;SDS011;9621;48.690;9.466;2022-10-18T12:45:57;4.45;;;2.78;;
18973;SDS011;9621;48.690;9.466;2022-10-18T12:48:32;4.68;;;2.45;;
18973;SDS011;9621;48.690;9.466;2022-10-18T12:51:04;6.05;;;2.90;;
18973;SDS011;9621;48.690;9.466;2022-10-18T12:53:37;5.82;;;2.50;;
18973;SDS011;9621;48.690;9.466;2022-10-18T13:02:19;5.07;;;2.60;;
18973;SDS011;9621;48.690;9.466;2022-10-18T13:04:51;4.38;;;2.63;;
18973;SDS011;9621;48.690;9.466;2022-10-18T13:07:31;4.68;;;2.60;;
18973;SDS011;9621;48.690;9.466;2022-10-18T13:16:05;7.45;;;2.67;;
18973;SDS011;9621;48.690;9.466;2022-10-18T13:18:44;4.70;;;2.45;;
18973;SDS011;9621;48.690;9.466;2022-10-18T13:21:19;5.32;;;2.38;;
18973;SDS011;9621;48.690;9.466;2022-10-18T13:23:58;7.78;;;2.60;;
18973;SDS011;9621;48.690;9.466;2022-10-18T13:26:36;7.57;;;2.65;;
18973;SDS011;9621;48.690;9.466;2022-10-18T13:29:16;7.20;;;2.47;;
18973;SDS011;9621;48.690;9.466;2022-10-18T13:31:56;5.35;;;2.08;;
18973;SDS011;9621;48.690;9.466;2022-10-18T13:34:30;9.30;;;2.65;;
18973;SDS011;9621;48.690;9.466;2022-10-18T13:37:02;4.63;;;2.33;;
18973;SDS011;9621;48.690;9.466;2022-10-18T13:39:31;6.95;;;2.25;;
18973;SDS011;9621;48.690;9.466;2022-10-18T13:42:18;6.25;;;2.13;;
18973;SDS011;9621;48.690;9.466;2022-10-18T13:44:53;3.78;;;2.20;;
18973;SDS011;9621;48.690;9.466;2022-10-18T13:47:34;5.53;;;2.28;;
18973;SDS011;9621;48.690;9.466;2022-10-18T13:52:59;5.57;;;2.20;;
18973;SDS011;9621;48.690;9.466;2022-10-18T13:55:53;4.50;;;2.45;;
18973;SDS011;9621;48.690;9.466;2022-10-18T13:58:29;3.20;;;2.25;;
18973;SDS011;9621;48.690;9.466;2022-10-18T14:01:13;3.25;;;2.08;;
18973;SDS011;9621;48.690;9.466;2022-10-18T14:06:53;4.13;;;2.63;;
18973;SDS011;9621;48.690;9.466;2022-10-18T14:09:27;5.32;;;2.50;;
18973;SDS011;9621;48.690;9.466;2022-10-18T14:12:00;4.57;;;2.20;;
18973;SDS011;9621;48.690;9.466;2022-10-18T14:14:34;4.07;;;2.55;;
18973;SDS011;9621;48.690;9.466;2022-10-18T14:17:12;3.72;;;2.53;;
18973;SDS011;9621;48.690;9.466;2022-10-18T14:19:45;6.97;;;2.60;;
18973;SDS011;9621;48.690;9.466;2022-10-18T14:22:19;4.13;;;2.25;;
18973;SDS011;9621;48.690;9.466;2022-10-18T14:24:49;5.05;;;1.98;;
18973;SDS011;9621;48.690;9.466;2022-10-18T14:27:19;3.30;;;2.00;;
18973;SDS011;9621;48.690;9.466;2022-10-18T14:29:47;5.07;;;2.13;;
18973;SDS011;9621;48.690;9.466;2022-10-18T14:32:20;2.50;;;2.03;;
18973;SDS011;9621;48.690;9.466;2022-10-18T14:34:50;3.33;;;2.10;;
18973;SDS011;9621;48.690;9.466;2022-10-18T14:37:22;3.22;;;1.80;;
18973;SDS011;9621;48.690;9.466;2022-10-18T14:39:53;3.70;;;1.83;;
18973;SDS011;9621;48.690;9.466;2022-10-18T14:42:21;2.63;;;1.83;;
18973;SDS011;9621;48.690;9.466;2022-10-18T14:44:50;5.18;;;2.10;;
18973;SDS011;9621;48.690;9.466;2022-10-18T14:47:19;5.20;;;2.00;;
18973;SDS011;9621;48.690;9.466;2022-10-18T14:49:47;4.95;;;1.95;;
18973;SDS011;9621;48.690;9.466;2022-10-18T14:52:16;7.72;;;2.03;;
18973;SDS011;9621;48.690;9.466;2022-10-18T14:54:47;4.93;;;1.90;;
18973;SDS011;9621;48.690;9.466;2022-10-18T14:57:15;3.38;;;1.90;;
18973;SDS011;9621;48.690;9.466;2022-10-18T14:59:45;2.72;;;1.75;;
18973;SDS011;9621;48.690;9.466;2022-10-18T15:02:18;4.60;;;2.20;;
18973;SDS011;9621;48.690;9.466;2022-10-18T15:04:53;5.18;;;2.20;;
18973;SDS011;9621;48.690;9.466;2022-10-18T15:07:22;5.78;;;2.08;;
18973;SDS011;9621;48.690;9.466;2022-10-18T15:09:54;6.60;;;2.17;;
18973;SDS011;9621;48.690;9.466;2022-10-18T15:12:23;2.47;;;2.00;;
18973;SDS011;9621;48.690;9.466;2022-10-18T15:14:51;4.68;;;2.35;;
18973;SDS011;9621;48.690;9.466;2022-10-18T15:17:19;6.65;;;2.33;;
18973;SDS011;9621;48.690;9.466;2022-10-18T15:19:52;6.97;;;2.20;;
18973;SDS011;9621;48.690;9.466;2022-10-18T15:22:22;2.67;;;2.20;;
18973;SDS011;9621;48.690;9.466;2022-10-18T15:25:24;4.95;;;2.17;;
18973;SDS011;9621;48.690;9.466;2022-10-18T15:27:55;7.70;;;2.20;;
18973;SDS011;9621;48.690;9.466;2022-10-18T15:30:24;5.32;;;2.53;;
18973;SDS011;9621;48.690;9.466;2022-10-18T15:32:53;4.28;;;2.30;;
18973;SDS011;9621;48.690;9.466;2022-10-18T15:35:24;4.20;;;2.60;;
18973;SDS011;9621;48.690;9.466;2022-10-18T15:37:53;3.65;;;2.20;;
18973;SDS011;9621;48.690;9.466;2022-10-18T15:40:33;4.65;;;2.90;;
18973;SDS011;9621;48.690;9.466;2022-10-18T15:43:02;5.53;;;2.53;;
18973;SDS011;9621;48.690;9.466;2022-10-18T15:45:32;6.22;;;2.10;;
18973;SDS011;9621;48.690;9.466;2022-10-18T15:48:13;6.13;;;2.80;;
18973;SDS011;9621;48.690;9.466;2022-10-18T15:50:46;7.45;;;2.90;;
18973;SDS011;9621;48.690;9.466;2022-10-18T15:53:31;5.35;;;2.88;;
18973;SDS011;9621;48.690;9.466;2022-10-18T15:56:04;3.08;;;2.33;;
18973;SDS011;9621;48.690;9.466;2022-10-18T15:58:39;5.22;;;2.53;;
18973;SDS011;9621;48.690;9.466;2022-10-18T16:01:13;4.80;;;2.92;;